首页
METAR-TAF:

METAR-TAF

机场 :

德拉姆堡, 紐約州, 美国

纬度: 44-03N, 经度: 075-44W, 海拔: 207米

当前天气观测

该预报发布于38分钟前的19:56 UTC
风速6节,风向西南
温度 26°C
湿度 54%
气压 1016 hPa
能見度: 16.1公里
散云层高于3600英尺

METAR: KGTB 031956Z AUTO 22006KT 10SM SCT036 26/16 A3000 RMK AO2 SLP156 T02560164

时间: 16:34 (20:34 UTC)

预报

该预报发布于3小时和34分钟前的17:00 UTC
预报有效从03日的 17点(UTC)到 04日的 23点(UTC)
风速9节,风向西转西南
能见度10公里或以上
少量云层高于3000英尺
散云层高于5000英尺
成为
从 03日的 22点(UTC)到 03日的 23点(UTC)
风速6节,风向多变
能见度10公里或以上
少量云层高于5000英尺
散云层高于8000英尺
短暂存在
从 04日的 03点(UTC)到 04日的 06点(UTC)
风速10节,风向,有时为15节阵风
能見度: 8000
多云层高于2000英尺
小阵雨
成为
从 04日的 07点(UTC)到 04日的 08点(UTC)
风速15节,风向南转南东,有时为25节阵风
能见度10公里或以上
散云层高于2000英尺
多云层高于4000英尺
成为
从 04日的 13点(UTC)到 04日的 14点(UTC)
风速15节,风向,有时为25节阵风
能見度: 8000
多云层高于2000英尺
阴天层高于4000英尺
小阵雨
短暂存在
从 04日的 15点(UTC)到 04日的 18点(UTC)
风速15节,风向南转西南,有时为25节阵风
能見度: 6000
多云层高于2000英尺, 积雨云.
阴天层高于3000英尺
雷暴, 小雨

TAF: KGTB 031700Z 0317/0423 25009KT 9999 FEW030 SCT050 QNH3000INS BECMG 0322/0323 VRB06KT 9999 FEW050 SCT080 QNH2994INS TEMPO 0403/0406 09010G15KT 8000 -SHRA BKN020 BECMG 0407/0408 16015G25KT 9999 SCT020 BKN040 510202 QNH2994INS BECMG 0413/0414 18015G25KT 8000 -SHRA BKN020 OVC040 510202 QNH2993INS TEMPO 0415/0418 20015G25KT 6000 -TSRA BKN020CB OVC030 TX26/0320Z TN20/0404Z

超过4000个机场的气象观测和天气预报(METAR&TAF报告)。

可查询的气象台以黄色和红色小点在地图上表示。

将鼠标移到小点上方,可查看气象台名称。

然后点击查看天气观测和预报。

如需切换地图:点击带黑十字的绿色按钮放大地图;点击带横线的绿色按钮缩小地图;或者点击绿色箭头查看邻近地区的地图。


METAR-TAF: